Time;durP1;ratioP1;P1;durP2;ratioP2;P2;SDS_P1;SDS_P2;PMS_P1;PMS_P2;Temp;Humidity;BMP_temperature;BMP_pressure;BME280_temperature;BME280_humidity;BME280_pressure;Samples;Min_cycle;Max_cycle;Signal;HPM_P1;HPM_P2
2023/03/10 00:01:34;;;;;;;;;;;;;;;11.24;71.64;98399.69;5112169;28;20322;-85
2023/03/10 00:04:00;;;;;;;;;;;;;;;11.19;72.26;98402.97;5105317;28;19927;-84
2023/03/10 00:06:27;;;;;;;;;;;;;;;11.17;72.85;98399.69;5102840;28;21291;-86
2023/03/10 00:08:52;;;;;;;;;;;;;;;11.14;73.36;98394.84;5112146;28;19976;-86
2023/03/10 00:11:17;;;;;;;;;;;;;;;11.12;73.52;98394.22;5103747;28;20391;-86
2023/03/10 00:13:43;;;;;;;;;;;;;;;11.13;73.64;98398.50;5091374;28;19915;-84
2023/03/10 00:16:13;;;;;;;;;;;;;;;11.09;74.24;98402.59;5106913;28;20282;-84
2023/03/10 00:18:39;;;;;;;;;;;;;;;11.08;73.75;98379.78;5111099;28;19923;-87
2023/03/10 00:21:05;;;;;;;;;;;;;;;11.04;74.86;98381.25;5103394;28;19924;-87
2023/03/10 00:23:30;;;;;;;;;;;;;;;10.99;75.28;98359.91;5112920;28;19920;-89
2023/03/10 00:25:56;;;;;;;;;;;;;;;10.97;75.50;98368.03;5108939;28;19965;-89
2023/03/10 00:28:21;;;;;;;;;;;;;;;10.94;75.99;98362.31;5119286;27;19926;-89
2023/03/10 00:31:03;;;;;;;;;;;;;;;10.91;75.82;98352.16;5105135;28;19924;-88
2023/03/10 00:33:30;;;;;;;;;;;;;;;10.90;75.95;98340.78;5096428;28;20546;-89
2023/03/10 00:36:06;;;;;;;;;;;;;;;10.90;75.62;98351.38;5103744;28;19939;-88
2023/03/10 00:38:32;;;;;;;;;;;;;;;10.92;75.76;98343.25;5097490;28;19946;-89
2023/03/10 00:41:02;;;;;;;;;;;;;;;10.92;75.64;98345.88;5117964;28;19989;-89
2023/03/10 00:43:27;;;;;;;;;;;;;;;10.89;76.00;98348.91;5112474;28;19920;-89
2023/03/10 00:45:53;;;;;;;;;;;;;;;10.88;75.75;98347.31;5093553;28;19920;-89
2023/03/10 00:48:18;;;;;;;;;;;;;;;10.90;75.67;98334.69;5099904;28;19980;-88
2023/03/10 00:50:43;;;;;;;;;;;;;;;10.87;75.70;98340.38;5100364;28;19969;-89
2023/03/10 00:53:08;;;;;;;;;;;;;;;10.85;75.87;98324.75;5093555;28;19920;-88
2023/03/10 00:55:33;;;;;;;;;;;;;;;10.88;75.86;98331.44;5099071;28;19949;-88
2023/03/10 00:57:59;;;;;;;;;;;;;;;10.84;75.53;98326.56;5098588;28;19927;-88
2023/03/10 01:00:24;;;;;;;;;;;;;;;10.83;75.63;98302.97;5087220;28;19915;-88
2023/03/10 01:02:51;;;;;;;;;;;;;;;10.84;75.45;98307.22;5119034;28;19922;-89
2023/03/10 01:05:18;;;;;;;;;;;;;;;10.89;75.24;98309.25;5118310;28;19924;-89
2023/03/10 01:07:43;;;;;;;;;;;;;;;10.86;75.35;98299.09;5118094;28;19915;-89
2023/03/10 01:10:09;;;;;;;;;;;;;;;10.83;75.74;98298.50;5116746;28;19973;-89
2023/03/10 01:12:34;;;;;;;;;;;;;;;10.82;75.58;98294.25;5091159;28;20283;-89
2023/03/10 01:14:59;;;;;;;;;;;;;;;10.84;75.45;98288.72;5091754;28;19916;-88
2023/03/10 01:17:24;;;;;;;;;;;;;;;10.88;75.26;98278.56;5108896;28;19916;-89
2023/03/10 01:19:49;;;;;;;;;;;;;;;10.85;75.46;98279.78;5084648;28;20501;-88
2023/03/10 01:22:14;;;;;;;;;;;;;;;10.85;75.56;98279.78;5087675;28;20002;-88
2023/03/10 01:24:40;;;;;;;;;;;;;;;10.83;75.86;98273.91;5098599;28;19916;-88
2023/03/10 01:27:05;;;;;;;;;;;;;;;10.81;76.10;98270.66;5098379;28;19919;-88
2023/03/10 01:29:30;;;;;;;;;;;;;;;10.78;76.23;98279.00;5097428;28;20362;-89
2023/03/10 01:31:55;;;;;;;;;;;;;;;10.79;76.28;98256.81;5095293;28;19920;-89
2023/03/10 01:34:20;;;;;;;;;;;;;;;10.71;77.03;98263.16;5109686;28;20340;-88
2023/03/10 01:36:45;;;;;;;;;;;;;;;10.69;76.84;98249.34;5099094;28;19926;-87
2023/03/10 01:39:11;;;;;;;;;;;;;;;10.71;77.27;98257.06;5097417;28;20011;-88
2023/03/10 01:41:37;;;;;;;;;;;;;;;10.73;77.00;98244.47;5090018;28;19991;-88
2023/03/10 01:44:03;;;;;;;;;;;;;;;10.68;77.70;98254.81;5114548;28;19920;-88
2023/03/10 01:46:37;;;;;;;;;;;;;;;10.60;78.36;98255.88;5098949;28;19920;-88
2023/03/10 01:49:05;;;;;;;;;;;;;;;10.52;78.99;98253.47;5097008;28;20375;-89
2023/03/10 01:51:32;;;;;;;;;;;;;;;10.50;79.34;98248.38;5095124;28;19975;-88
2023/03/10 01:53:58;;;;;;;;;;;;;;;10.45;80.54;98256.09;5110880;28;19919;-88
2023/03/10 01:56:23;;;;;;;;;;;;;;;10.44;80.60;98253.66;5093502;28;19970;-89
2023/03/10 01:58:49;;;;;;;;;;;;;;;10.39;81.22;98249.84;5113524;28;20267;-89
2023/03/10 02:01:15;;;;;;;;;;;;;;;10.39;81.11;98252.47;5098313;28;19919;-89
2023/03/10 02:03:45;;;;;;;;;;;;;;;10.36;81.07;98239.66;5096608;28;19919;-89
2023/03/10 02:06:13;;;;;;;;;;;;;;;10.30;82.38;98240.50;5094065;28;19919;-89
2023/03/10 02:08:41;;;;;;;;;;;;;;;10.28;82.19;98237.25;5116580;28;19943;-89
2023/03/10 02:11:06;;;;;;;;;;;;;;;10.24;82.73;98228.06;5110449;28;19920;-89
2023/03/10 02:13:31;;;;;;;;;;;;;;;10.23;83.11;98226.47;5096121;28;20035;-89
2023/03/10 02:15:56;;;;;;;;;;;;;;;10.23;83.22;98234.38;5092880;28;19920;-89
2023/03/10 02:18:22;;;;;;;;;;;;;;;10.23;83.45;98231.75;5104309;28;19966;-89
2023/03/10 02:20:51;;;;;;;;;;;;;;;10.17;83.97;98230.72;5095748;28;19920;-88
2023/03/10 02:23:29;;;;;;;;;;;;;;;10.13;84.71;98233.97;5096487;28;19947;-89
2023/03/10 02:25:58;;;;;;;;;;;;;;;10.13;84.35;98220.78;5096883;28;19919;-89
2023/03/10 02:28:23;;;;;;;;;;;;;;;10.11;85.02;98222.84;5089705;28;19923;-89
2023/03/10 02:30:50;;;;;;;;;;;;;;;10.07;85.37;98203.94;5089509;28;20375;-89
2023/03/10 02:33:18;;;;;;;;;;;;;;;10.06;85.53;98212.88;5106870;28;19923;-89
2023/03/10 02:35:43;;;;;;;;;;;;;;;10.02;85.99;98211.66;5096915;28;20272;-89
2023/03/10 02:38:08;;;;;;;;;;;;;;;9.98;86.08;98215.72;5088601;28;19920;-88
2023/03/10 02:40:44;;;;;;;;;;;;;;;9.98;85.94;98208.59;5095731;28;19929;-89
2023/03/10 02:43:12;;;;;;;;;;;;;;;9.96;86.00;98204.53;5112052;28;19920;-89
2023/03/10 02:45:39;;;;;;;;;;;;;;;9.96;86.65;98217.75;5108150;28;20671;-89
2023/03/10 02:48:05;;;;;;;;;;;;;;;9.94;86.46;98211.88;5104346;28;20011;-89
2023/03/10 02:50:34;;;;;;;;;;;;;;;9.95;86.28;98214.31;5089402;28;19962;-89
2023/03/10 02:53:09;;;;;;;;;;;;;;;9.92;86.43;98212.06;5088948;28;20371;-89
2023/03/10 02:55:35;;;;;;;;;;;;;;;9.88;86.85;98202.94;5095074;28;20007;-88
2023/03/10 02:58:01;;;;;;;;;;;;;;;9.86;87.02;98202.31;5098334;28;19975;-89
2023/03/10 03:00:26;;;;;;;;;;;;;;;9.85;87.08;98206.00;5117523;27;20291;-89
2023/03/10 03:02:52;;;;;;;;;;;;;;;9.84;87.06;98193.78;5110450;28;19919;-89
2023/03/10 03:05:17;;;;;;;;;;;;;;;9.85;87.01;98190.16;5098123;28;19927;-89
2023/03/10 03:07:42;;;;;;;;;;;;;;;9.86;87.06;98186.47;5103657;28;19927;-89
2023/03/10 03:10:08;;;;;;;;;;;;;;;9.84;87.24;98179.78;5120128;27;19973;-89
2023/03/10 03:12:33;;;;;;;;;;;;;;;9.87;86.88;98180.22;5089455;28;19916;-89
2023/03/10 03:14:58;;;;;;;;;;;;;;;9.86;87.14;98183.03;5109263;27;19920;-89
2023/03/10 03:17:23;;;;;;;;;;;;;;;9.84;87.08;98185.88;5111233;28;19922;-89
2023/03/10 03:19:48;;;;;;;;;;;;;;;9.83;87.46;98186.09;5113362;28;19948;-87
2023/03/10 03:22:13;;;;;;;;;;;;;;;9.85;87.48;98178.78;5104039;28;19923;-88
2023/03/10 03:24:39;;;;;;;;;;;;;;;9.85;87.27;98192.00;5111181;28;20376;-88
2023/03/10 03:27:04;;;;;;;;;;;;;;;9.83;87.73;98178.19;5119172;27;19916;-89
2023/03/10 03:29:29;;;;;;;;;;;;;;;9.85;87.50;98176.97;5112632;28;19920;-88
2023/03/10 03:31:59;;;;;;;;;;;;;;;9.86;87.54;98178.56;5091942;28;19920;-88
2023/03/10 03:34:25;;;;;;;;;;;;;;;9.87;87.45;98174.94;5098844;28;19922;-89
2023/03/10 03:36:50;;;;;;;;;;;;;;;9.83;87.57;98176.34;5125234;27;19916;-89
2023/03/10 03:39:16;;;;;;;;;;;;;;;9.84;87.68;98175.31;5096239;28;19973;-89
2023/03/10 03:41:42;;;;;;;;;;;;;;;9.87;86.92;98167.00;5088608;28;20002;-88
2023/03/10 03:44:07;;;;;;;;;;;;;;;9.87;87.62;98169.66;5098838;27;19986;-89
2023/03/10 03:46:32;;;;;;;;;;;;;;;9.74;88.32;98165.19;5100266;28;19946;-89
2023/03/10 03:48:57;;;;;;;;;;;;;;;9.63;89.16;98164.97;5096892;28;19920;-89
2023/03/10 03:51:22;;;;;;;;;;;;;;;9.54;90.12;98159.13;5116588;28;19981;-89
2023/03/10 03:53:48;;;;;;;;;;;;;;;9.43;91.35;98149.16;5118877;28;19965;-89
2023/03/10 03:56:13;;;;;;;;;;;;;;;9.40;91.52;98166.22;5117601;28;19919;-89
2023/03/10 03:58:38;;;;;;;;;;;;;;;9.31;92.93;98156.88;5092137;28;19916;-89
2023/03/10 04:01:03;;;;;;;;;;;;;;;9.29;92.69;98158.88;5112082;28;19920;-88
2023/03/10 04:03:28;;;;;;;;;;;;;;;9.25;92.71;98137.41;5095933;28;20393;-89
2023/03/10 04:05:53;;;;;;;;;;;;;;;9.24;92.93;98140.22;5100108;28;19920;-89
2023/03/10 04:08:19;;;;;;;;;;;;;;;9.27;92.99;98132.75;5116325;28;19946;-89
2023/03/10 04:10:52;;;;;;;;;;;;;;;9.24;94.35;98140.22;5099801;28;19932;-88
2023/03/10 04:13:18;;;;;;;;;;;;;;;9.24;94.26;98141.03;5088152;28;20014;-89
2023/03/10 04:15:43;;;;;;;;;;;;;;;9.22;94.30;98135.13;5086295;28;19951;-89
2023/03/10 04:18:09;;;;;;;;;;;;;;;9.22;94.73;98140.41;5082599;28;19945;-88
2023/03/10 04:20:35;;;;;;;;;;;;;;;9.22;95.09;98136.97;5097822;28;19919;-89
2023/03/10 04:23:00;;;;;;;;;;;;;;;9.20;96.06;98125.81;5097354;28;20363;-89
2023/03/10 04:25:26;;;;;;;;;;;;;;;9.19;96.11;98132.13;5116103;28;19916;-89
2023/03/10 04:27:51;;;;;;;;;;;;;;;9.21;95.54;98138.00;5096457;28;19916;-89
2023/03/10 04:30:16;;;;;;;;;;;;;;;9.16;95.86;98133.34;5104750;28;19932;-89
2023/03/10 04:32:41;;;;;;;;;;;;;;;9.12;96.11;98135.53;5099174;28;19926;-89
2023/03/10 04:35:07;;;;;;;;;;;;;;;9.07;96.01;98145.88;5098858;28;19916;-89
2023/03/10 04:37:32;;;;;;;;;;;;;;;9.02;95.85;98132.50;5097511;28;20002;-89
2023/03/10 04:39:57;;;;;;;;;;;;;;;8.95;96.13;98136.94;5091701;28;19962;-89
2023/03/10 04:42:22;;;;;;;;;;;;;;;8.90;96.57;98134.91;5098211;28;19955;-89
2023/03/10 04:44:48;;;;;;;;;;;;;;;8.86;96.80;98138.13;5090486;28;19920;-88
2023/03/10 04:47:13;;;;;;;;;;;;;;;8.82;96.25;98129.00;5083936;28;19963;-89
2023/03/10 04:49:38;;;;;;;;;;;;;;;8.78;96.53;98131.22;5088515;28;20372;-88
2023/03/10 04:52:04;;;;;;;;;;;;;;;8.78;96.17;98123.31;5098987;28;19923;-88
2023/03/10 04:54:29;;;;;;;;;;;;;;;8.76;96.06;98127.19;5099139;28;19978;-89
2023/03/10 04:56:54;;;;;;;;;;;;;;;8.75;96.32;98128.16;5113037;28;19916;-89
2023/03/10 04:59:20;;;;;;;;;;;;;;;8.71;96.29;98118.03;5096249;28;19917;-88
2023/03/10 05:01:46;;;;;;;;;;;;;;;8.70;96.54;98113.78;5098971;28;19984;-89
2023/03/10 05:04:11;;;;;;;;;;;;;;;8.71;96.17;98114.59;5098963;28;19915;-88
2023/03/10 05:06:36;;;;;;;;;;;;;;;8.73;95.72;98106.50;5099951;28;20006;-89
2023/03/10 05:09:03;;;;;;;;;;;;;;;8.74;96.06;98111.56;5082567;28;19920;-89
2023/03/10 05:11:28;;;;;;;;;;;;;;;8.78;96.05;98098.81;5093039;28;19985;-89
2023/03/10 05:13:54;;;;;;;;;;;;;;;8.85;95.74;98102.28;5116212;28;19916;-89
2023/03/10 05:16:20;;;;;;;;;;;;;;;8.92;95.79;98103.09;5109491;28;19926;-88
2023/03/10 05:18:45;;;;;;;;;;;;;;;8.98;95.55;98096.19;5099906;28;19916;-89
2023/03/10 05:21:10;;;;;;;;;;;;;;;9.04;95.27;98087.50;5117522;28;19985;-89
2023/03/10 05:23:36;;;;;;;;;;;;;;;9.10;95.02;98090.09;5091102;28;19923;-88
2023/03/10 05:26:02;;;;;;;;;;;;;;;9.19;94.81;98088.09;5083508;28;20029;-89
2023/03/10 05:28:28;;;;;;;;;;;;;;;9.31;93.93;98094.38;5095667;28;20558;-88
2023/03/10 05:30:53;;;;;;;;;;;;;;;9.36;93.33;98085.84;5079967;28;19975;-88
2023/03/10 05:33:18;;;;;;;;;;;;;;;9.36;93.15;98078.75;5097956;28;19942;-88
2023/03/10 05:35:43;;;;;;;;;;;;;;;9.42;92.98;98076.34;5099889;28;19927;-88
2023/03/10 05:38:08;;;;;;;;;;;;;;;9.48;92.50;98075.50;5100167;28;19915;-88
2023/03/10 05:40:34;;;;;;;;;;;;;;;9.53;91.66;98054.59;5100010;28;19919;-89
2023/03/10 05:42:59;;;;;;;;;;;;;;;9.53;91.89;98050.16;5098049;28;20010;-89
2023/03/10 05:45:25;;;;;;;;;;;;;;;9.52;91.49;98047.69;5099183;28;19966;-89
2023/03/10 05:47:50;;;;;;;;;;;;;;;9.57;90.89;98053.97;5099545;28;19930;-89
2023/03/10 05:50:16;;;;;;;;;;;;;;;9.58;90.64;98046.88;5098666;28;19926;-89
2023/03/10 05:52:42;;;;;;;;;;;;;;;9.60;90.79;98063.31;5110165;28;19927;-89
2023/03/10 05:55:10;;;;;;;;;;;;;;;9.62;90.25;98068.38;5096386;28;19998;-89
2023/03/10 05:57:36;;;;;;;;;;;;;;;9.66;90.19;98061.69;5096471;28;19915;-89
2023/03/10 06:00:01;;;;;;;;;;;;;;;9.66;90.24;98059.84;5093288;28;19930;-89
2023/03/10 06:02:26;;;;;;;;;;;;;;;9.70;90.01;98054.97;5108862;28;20022;-89
2023/03/10 06:04:51;;;;;;;;;;;;;;;9.73;89.71;98055.38;5086710;28;19924;-89
2023/03/10 06:07:17;;;;;;;;;;;;;;;9.72;89.42;98050.28;5097159;28;19957;-90
2023/03/10 06:09:53;;;;;;;;;;;;;;;9.73;89.51;98051.94;5098994;28;19923;-89
2023/03/10 06:12:18;;;;;;;;;;;;;;;9.78;89.30;98044.19;5115557;28;20726;-89
2023/03/10 06:14:43;;;;;;;;;;;;;;;9.76;89.23;98036.47;5090186;28;19916;-89
2023/03/10 06:17:09;;;;;;;;;;;;;;;9.78;88.97;98041.56;5091440;28;19920;-89
2023/03/10 06:19:34;;;;;;;;;;;;;;;9.81;88.76;98045.59;5096210;28;19977;-89
2023/03/10 06:21:59;;;;;;;;;;;;;;;9.86;88.53;98048.44;5091056;28;19928;-89
2023/03/10 06:24:26;;;;;;;;;;;;;;;9.83;88.57;98047.00;5092573;28;19928;-89
2023/03/10 06:26:51;;;;;;;;;;;;;;;9.82;88.22;98042.78;5098662;28;19920;-89
2023/03/10 06:29:16;;;;;;;;;;;;;;;9.84;88.46;98045.19;5095664;28;19920;-89
2023/03/10 06:31:41;;;;;;;;;;;;;;;9.80;88.20;98042.16;5088397;28;19936;-89
2023/03/10 06:34:07;;;;;;;;;;;;;;;9.83;88.48;98044.38;5101603;28;19916;-89
2023/03/10 06:36:32;;;;;;;;;;;;;;;9.83;88.20;98041.75;5103012;28;19916;-89
2023/03/10 06:38:57;;;;;;;;;;;;;;;9.86;87.73;98043.16;5094817;28;20038;-89
2023/03/10 06:41:22;;;;;;;;;;;;;;;9.86;87.68;98036.03;5094613;28;19920;-90
2023/03/10 06:43:56;;;;;;;;;;;;;;;9.87;87.42;98035.03;5091439;28;20342;-88
2023/03/10 06:46:21;;;;;;;;;;;;;;;9.91;87.10;98035.41;5094660;28;19924;-90
2023/03/10 06:48:46;;;;;;;;;;;;;;;9.93;86.57;98034.19;5094674;28;19938;-89
2023/03/10 06:51:13;;;;;;;;;;;;;;;9.94;86.82;98041.09;5096229;28;19932;-89
2023/03/10 06:53:53;;;;;;;;;;;;;;;10.00;86.50;98050.81;5099825;28;19920;-91
2023/03/10 06:56:20;;;;;;;;;;;;;;;10.04;86.11;98034.56;5094406;28;19908;-86
2023/03/10 06:58:45;;;;;;;;;;;;;;;10.10;85.47;98044.28;5096665;28;19927;-88
2023/03/10 07:01:22;;;;;;;;;;;;;;;10.19;85.03;98032.47;5095481;28;20423;-87
2023/03/10 07:03:47;;;;;;;;;;;;;;;10.28;84.51;98035.69;5087799;28;19921;-88
2023/03/10 07:06:12;;;;;;;;;;;;;;;10.33;84.38;98025.31;5085713;28;19920;-86
2023/03/10 07:08:37;;;;;;;;;;;;;;;10.43;84.15;98030.13;5124835;28;19995;-85
2023/03/10 07:11:03;;;;;;;;;;;;;;;10.56;83.50;98030.06;5109280;28;20598;-85
2023/03/10 07:13:28;;;;;;;;;;;;;;;10.76;83.02;98025.44;5119538;28;19916;-85
2023/03/10 07:15:53;;;;;;;;;;;;;;;10.85;82.16;98028.63;5121749;28;20015;-86
2023/03/10 07:18:19;;;;;;;;;;;;;;;11.03;81.67;98026.03;5106140;28;20060;-86
2023/03/10 07:20:46;;;;;;;;;;;;;;;11.27;81.55;98024.44;5106079;28;19927;-86
2023/03/10 07:23:12;;;;;;;;;;;;;;;11.40;79.10;98015.53;5097892;28;19994;-88
2023/03/10 07:25:37;;;;;;;;;;;;;;;11.47;80.32;98026.06;5099817;28;19977;-87
2023/03/10 07:28:03;;;;;;;;;;;;;;;11.38;79.74;98020.25;5097294;28;20006;-87
2023/03/10 07:30:29;;;;;;;;;;;;;;;11.27;79.21;98027.06;5100057;28;20323;-87
2023/03/10 07:32:54;;;;;;;;;;;;;;;11.21;79.06;98025.28;5091105;28;19920;-88
2023/03/10 07:35:21;;;;;;;;;;;;;;;11.07;78.45;98033.56;5099626;28;20272;-88
2023/03/10 07:37:46;;;;;;;;;;;;;;;11.00;79.37;98021.19;5101461;28;19912;-85
2023/03/10 07:40:12;;;;;;;;;;;;;;;11.03;79.73;98031.31;5122917;28;20402;-87
2023/03/10 07:42:43;;;;;;;;;;;;;;;11.12;79.51;98039.00;5105535;28;19920;-89
2023/03/10 07:45:09;;;;;;;;;;;;;;;11.10;79.23;98027.81;5100394;28;19920;-90
2023/03/10 07:47:34;;;;;;;;;;;;;;;11.11;79.13;98035.56;5100468;28;19942;-90
2023/03/10 07:50:02;;;;;;;;;;;;;;;11.09;78.88;98032.31;5103544;28;19924;-89
2023/03/10 07:52:28;;;;;;;;;;;;;;;11.12;79.41;98045.09;5087248;28;19920;-90
2023/03/10 07:54:53;;;;;;;;;;;;;;;11.16;79.37;98034.91;5099500;28;19981;-90
2023/03/10 07:57:19;;;;;;;;;;;;;;;11.10;78.78;98039.22;5104334;28;20007;-89
2023/03/10 07:59:44;;;;;;;;;;;;;;;11.04;78.98;98026.88;5099217;28;19924;-90
2023/03/10 08:02:13;;;;;;;;;;;;;;;11.04;79.29;98021.56;5101956;28;19938;-88
2023/03/10 08:04:38;;;;;;;;;;;;;;;11.00;79.32;98025.66;5109892;28;20007;-91
2023/03/10 08:07:03;;;;;;;;;;;;;;;10.93;79.60;98030.19;5104652;28;20004;-90
2023/03/10 08:09:29;;;;;;;;;;;;;;;10.68;81.18;98032.81;5105129;28;19915;-90
2023/03/10 08:12:02;;;;;;;;;;;;;;;10.48;81.74;98028.47;5115143;28;19931;-88
2023/03/10 08:14:30;;;;;;;;;;;;;;;10.26;83.11;98022.66;5093552;28;20019;-89
2023/03/10 08:16:56;;;;;;;;;;;;;;;10.13;83.73;98025.38;5103795;28;19920;-89
2023/03/10 08:19:25;;;;;;;;;;;;;;;10.10;84.11;98039.00;5102925;28;19926;-89
2023/03/10 08:21:53;;;;;;;;;;;;;;;10.05;84.61;98049.38;5101994;28;19920;-90
2023/03/10 08:24:18;;;;;;;;;;;;;;;10.00;84.47;98061.38;5100693;28;19920;-89
2023/03/10 08:26:43;;;;;;;;;;;;;;;9.89;85.31;98050.63;5092852;28;19919;-89
2023/03/10 08:29:08;;;;;;;;;;;;;;;9.82;85.92;98057.78;5096656;28;20365;-89
2023/03/10 08:31:33;;;;;;;;;;;;;;;9.79;86.06;98085.38;5104476;28;19923;-89
2023/03/10 08:33:58;;;;;;;;;;;;;;;9.75;85.68;98102.69;5095824;28;20018;-89
2023/03/10 08:36:28;;;;;;;;;;;;;;;9.68;86.04;98107.16;5100292;28;21145;-89
2023/03/10 08:38:54;;;;;;;;;;;;;;;9.65;85.91;98105.72;5112642;28;19942;-90
2023/03/10 08:41:40;;;;;;;;;;;;;;;9.56;86.18;98099.84;5102473;28;20022;-90
2023/03/10 08:44:06;;;;;;;;;;;;;;;9.50;86.14;98110.41;5116383;28;19916;-89
2023/03/10 08:46:31;;;;;;;;;;;;;;;9.50;86.39;98115.69;5112013;28;19927;-88
2023/03/10 08:48:57;;;;;;;;;;;;;;;9.55;86.06;98116.69;5097810;28;20057;-89
2023/03/10 08:51:22;;;;;;;;;;;;;;;9.57;86.39;98112.00;5102647;28;19924;-89
2023/03/10 08:53:49;;;;;;;;;;;;;;;9.76;85.78;98114.84;5102085;28;20011;-89
2023/03/10 08:56:15;;;;;;;;;;;;;;;9.89;84.47;98117.47;5102020;28;20450;-89
2023/03/10 08:58:40;;;;;;;;;;;;;;;10.00;84.02;98116.81;5092662;28;20401;-89
2023/03/10 09:01:09;;;;;;;;;;;;;;;10.11;83.14;98115.38;5094007;28;19916;-90
2023/03/10 09:03:35;;;;;;;;;;;;;;;10.20;82.05;98114.13;5103428;28;19920;-90
2023/03/10 09:06:01;;;;;;;;;;;;;;;10.26;82.37;98116.94;5101979;28;19927;-89
2023/03/10 09:08:26;;;;;;;;;;;;;;;10.34;82.38;98116.72;5104706;28;20316;-89
2023/03/10 09:10:53;;;;;;;;;;;;;;;10.38;80.58;98123.22;5105615;28;19927;-90
2023/03/10 09:13:18;;;;;;;;;;;;;;;10.55;81.12;98111.16;5089067;28;19920;-89
2023/03/10 09:15:43;;;;;;;;;;;;;;;10.74;79.67;98112.06;5098492;28;19964;-88
2023/03/10 09:18:10;;;;;;;;;;;;;;;10.82;76.88;98111.00;5118863;28;19920;-89
2023/03/10 09:20:36;;;;;;;;;;;;;;;11.04;76.29;98120.22;5117781;28;19927;-88
2023/03/10 09:23:02;;;;;;;;;;;;;;;11.29;75.46;98122.06;5080237;28;19923;-89
2023/03/10 09:25:34;;;;;;;;;;;;;;;11.44;75.14;98119.94;5100368;28;20298;-89
2023/03/10 09:27:59;;;;;;;;;;;;;;;11.56;75.56;98106.81;5100632;28;19924;-89
2023/03/10 09:30:25;;;;;;;;;;;;;;;11.70;74.81;98118.06;5096892;28;20001;-78
2023/03/10 09:32:50;;;;;;;;;;;;;;;12.26;74.97;98114.47;5110655;28;20406;-87
2023/03/10 09:35:15;;;;;;;;;;;;;;;13.05;71.92;98117.09;5111600;28;19941;-88
2023/03/10 09:37:41;;;;;;;;;;;;;;;13.37;69.67;98116.81;5107929;28;19903;-87
2023/03/10 09:40:08;;;;;;;;;;;;;;;13.39;68.01;98112.09;5098675;28;19927;-83
2023/03/10 09:42:47;;;;;;;;;;;;;;;13.47;68.32;98108.31;5098415;28;19930;-83
2023/03/10 09:45:19;;;;;;;;;;;;;;;13.30;67.98;98108.16;5098369;28;19971;-83
2023/03/10 09:47:51;;;;;;;;;;;;;;;13.01;68.60;98104.50;5097207;28;19920;-83
2023/03/10 09:50:26;;;;;;;;;;;;;;;12.59;68.58;98099.19;5113177;28;19969;-84
2023/03/10 09:53:06;;;;;;;;;;;;;;;12.34;69.89;98089.50;5122225;27;19930;-88
2023/03/10 09:55:39;;;;;;;;;;;;;;;12.19;70.58;98094.38;5096493;28;20399;-87
2023/03/10 09:58:05;;;;;;;;;;;;;;;11.81;71.21;98103.31;5092057;28;19923;-89
2023/03/10 10:00:34;;;;;;;;;;;;;;;11.57;72.60;98105.78;5113343;28;19920;-88
2023/03/10 10:03:11;;;;;;;;;;;;;;;11.41;73.80;98101.81;5120778;28;19919;-87
2023/03/10 10:05:38;;;;;;;;;;;;;;;11.33;74.38;98098.66;5094585;28;19920;-88
2023/03/10 10:08:12;;;;;;;;;;;;;;;11.29;74.07;98097.47;5118133;28;19990;-87
2023/03/10 10:10:37;;;;;;;;;;;;;;;11.42;73.45;98092.06;5095412;28;19924;-88
2023/03/10 10:13:10;;;;;;;;;;;;;;;11.43;73.31;98093.69;5118598;28;19926;-89
2023/03/10 10:15:38;;;;;;;;;;;;;;;11.44;73.53;98097.94;5100875;28;19955;-88
2023/03/10 10:18:26;;;;;;;;;;;;;;;11.51;73.24;98093.38;5102130;28;19919;-86
2023/03/10 10:20:57;;;;;;;;;;;;;;;11.51;73.34;98100.53;5107917;27;20439;-88
2023/03/10 10:23:40;;;;;;;;;;;;;;;11.46;73.70;98101.19;5102891;28;19979;-88
2023/03/10 10:26:11;;;;;;;;;;;;;;;11.51;73.58;98100.53;5118094;28;19943;-88
2023/03/10 10:28:48;;;;;;;;;;;;;;;11.48;73.32;98107.88;5085821;28;19920;-87
2023/03/10 10:31:16;;;;;;;;;;;;;;;11.41;73.56;98106.31;5099446;28;20133;-88
2023/03/10 10:33:50;;;;;;;;;;;;;;;11.40;74.33;98110.00;5099451;28;19924;-88
2023/03/10 10:36:17;;;;;;;;;;;;;;;11.37;74.14;98108.59;5099297;28;20276;-88
2023/03/10 10:38:46;;;;;;;;;;;;;;;11.43;75.00;98109.56;5117853;28;19931;-87
2023/03/10 10:41:16;;;;;;;;;;;;;;;11.51;74.75;98109.28;5118323;28;19920;-88
2023/03/10 10:43:43;;;;;;;;;;;;;;;11.50;74.85;98112.16;5115391;28;19927;-87
2023/03/10 10:46:09;;;;;;;;;;;;;;;11.37;75.00;98113.06;5113959;28;19920;-88
2023/03/10 10:48:39;;;;;;;;;;;;;;;11.36;75.68;98122.03;5102046;28;19927;-89
2023/03/10 10:51:05;;;;;;;;;;;;;;;11.32;75.82;98112.91;5117038;28;19924;-88
2023/03/10 10:53:34;;;;;;;;;;;;;;;11.29;76.04;98118.63;5100387;28;19931;-87
2023/03/10 10:56:01;;;;;;;;;;;;;;;11.22;76.62;98119.47;5096532;28;19926;-87
2023/03/10 10:58:28;;;;;;;;;;;;;;;11.22;77.02;98116.03;5096970;28;19928;-86
2023/03/10 11:00:55;;;;;;;;;;;;;;;11.17;77.80;98123.81;5099536;28;19915;-86
2023/03/10 11:03:29;;;;;;;;;;;;;;;11.17;77.79;98129.09;5115827;28;19927;-88
2023/03/10 11:05:54;;;;;;;;;;;;;;;11.20;77.65;98123.38;5116430;28;20006;-88
2023/03/10 11:08:25;;;;;;;;;;;;;;;11.22;77.40;98116.84;5114789;28;19947;-86
2023/03/10 11:10:55;;;;;;;;;;;;;;;11.31;77.22;98124.53;5098139;28;19928;-88
2023/03/10 11:13:34;;;;;;;;;;;;;;;11.41;77.21;98119.53;5113845;28;19934;-88
2023/03/10 11:16:05;;;;;;;;;;;;;;;11.53;77.04;98111.72;5101517;28;19927;-88
2023/03/10 11:18:35;;;;;;;;;;;;;;;11.50;76.17;98118.25;5117921;28;20008;-89
2023/03/10 11:21:05;;;;;;;;;;;;;;;11.49;76.56;98127.22;5101541;28;19934;-88
2023/03/10 11:23:43;;;;;;;;;;;;;;;11.55;76.58;98126.34;5113700;28;19920;-87
2023/03/10 11:26:31;;;;;;;;;;;;;;;11.47;76.54;98124.78;5110830;28;19928;-85
2023/03/10 11:28:57;;;;;;;;;;;;;;;11.26;78.22;98125.97;5117726;28;19923;-85
2023/03/10 11:31:29;;;;;;;;;;;;;;;11.09;79.11;98126.72;5098484;28;19976;-84
2023/03/10 11:34:13;;;;;;;;;;;;;;;10.91;80.49;98132.72;5110730;28;19931;-88
2023/03/10 11:36:41;;;;;;;;;;;;;;;10.84;80.29;98130.09;5126566;27;19927;-85
2023/03/10 11:39:16;;;;;;;;;;;;;;;10.84;79.89;98132.75;5103944;28;20399;-84
2023/03/10 11:41:44;;;;;;;;;;;;;;;10.79;80.09;98135.22;5119288;28;19920;-84
2023/03/10 11:44:20;;;;;;;;;;;;;;;10.77;80.25;98127.53;5119272;27;20010;-84
2023/03/10 11:46:53;;;;;;;;;;;;;;;10.69;80.79;98122.47;5099425;28;19920;-86
2023/03/10 11:49:23;;;;;;;;;;;;;;;10.84;79.73;98127.47;5098476;28;19920;-84
2023/03/10 11:51:57;;;;;;;;;;;;;;;10.89;79.53;98132.13;5105008;28;19959;-85
2023/03/10 11:54:54;;;;;;;;;;;;;;;10.89;79.39;98137.41;5099190;28;20449;-85
2023/03/10 11:57:21;;;;;;;;;;;;;;;10.77;79.92;98130.16;5077010;28;20287;-85
2023/03/10 11:59:55;;;;;;;;;;;;;;;10.73;80.42;98126.31;5100522;28;19927;-88
2023/03/10 12:02:33;;;;;;;;;;;;;;;10.63;80.31;98123.31;5099671;28;20448;-84
2023/03/10 12:05:17;;;;;;;;;;;;;;;10.51;80.66;98122.34;5098583;28;19926;-85
2023/03/10 12:07:47;;;;;;;;;;;;;;;10.37;80.65;98121.63;5110156;28;19974;-85
2023/03/10 12:10:17;;;;;;;;;;;;;;;10.24;82.01;98124.25;5116885;28;19931;-85
2023/03/10 12:12:46;;;;;;;;;;;;;;;10.04;85.57;98132.25;5100504;28;19965;-83
2023/03/10 12:15:23;;;;;;;;;;;;;;;9.90;85.57;98113.78;5102935;28;19924;-86
2023/03/10 12:17:49;;;;;;;;;;;;;;;9.77;86.54;98117.28;5101303;28;19920;-85
2023/03/10 12:20:17;;;;;;;;;;;;;;;9.68;87.16;98126.44;5097365;28;19926;-85
2023/03/10 12:22:45;;;;;;;;;;;;;;;9.65;87.12;98121.53;5118012;28;19951;-85
2023/03/10 12:25:34;;;;;;;;;;;;;;;9.62;88.10;98124.59;5119251;28;19922;-85
2023/03/10 12:28:18;;;;;;;;;;;;;;;9.58;89.01;98120.72;5101327;28;19916;-85
2023/03/10 12:30:50;;;;;;;;;;;;;;;9.53;88.49;98118.75;5101571;28;20383;-84
2023/03/10 12:33:30;;;;;;;;;;;;;;;9.54;88.74;98107.16;5119078;28;19923;-84
2023/03/10 12:36:13;;;;;;;;;;;;;;;9.56;89.61;98099.84;5101309;28;19962;-85
2023/03/10 12:38:40;;;;;;;;;;;;;;;9.61;89.51;98109.00;5099188;28;20397;-86
2023/03/10 12:41:06;;;;;;;;;;;;;;;9.62;89.77;98103.47;5091981;28;19915;-84
2023/03/10 12:43:50;;;;;;;;;;;;;;;9.60;89.60;98100.25;5102053;28;19920;-84
2023/03/10 12:46:20;;;;;;;;;;;;;;;9.58;89.66;98107.53;5099775;28;19923;-85
2023/03/10 12:48:52;;;;;;;;;;;;;;;9.50;90.55;98105.94;5100194;28;19935;-85
2023/03/10 12:51:22;;;;;;;;;;;;;;;9.38;91.04;98109.41;5117991;28;19923;-85
2023/03/10 12:53:57;;;;;;;;;;;;;;;9.34;91.20;98109.81;5091611;28;19916;-85